sensor_id;sensor_type;location;lat;lon;timestamp;pressure;altitude;pressure_sealevel;temperature;humidity
10712;BME280;5407;51.234;6.804;2022-12-29T00:01:38;99826.78;;;23.73;41.43
10712;BME280;5407;51.234;6.804;2022-12-29T00:04:05;99824.03;;;23.73;41.48
10712;BME280;5407;51.234;6.804;2022-12-29T00:06:32;99833.84;;;23.73;41.37
10712;BME280;5407;51.234;6.804;2022-12-29T00:09:00;99822.06;;;23.73;41.53
10712;BME280;5407;51.234;6.804;2022-12-29T00:11:27;99820.06;;;23.73;41.48
10712;BME280;5407;51.234;6.804;2022-12-29T00:13:54;99817.31;;;23.73;41.59
10712;BME280;5407;51.234;6.804;2022-12-29T00:16:40;99803.53;;;23.73;41.54
10712;BME280;5407;51.234;6.804;2022-12-29T00:19:08;99796.50;;;23.73;41.53
10712;BME280;5407;51.234;6.804;2022-12-29T00:21:55;99798.50;;;23.72;41.48
10712;BME280;5407;51.234;6.804;2022-12-29T00:24:41;99791.44;;;23.71;41.53
10712;BME280;5407;51.234;6.804;2022-12-29T00:27:26;99796.19;;;23.71;41.46
10712;BME280;5407;51.234;6.804;2022-12-29T00:30:12;99785.16;;;23.71;41.63
10712;BME280;5407;51.234;6.804;2022-12-29T00:32:57;99776.91;;;23.71;41.58
10712;BME280;5407;51.234;6.804;2022-12-29T00:35:44;99775.69;;;23.72;41.51
10712;BME280;5407;51.234;6.804;2022-12-29T00:38:13;99775.69;;;23.72;41.54
10712;BME280;5407;51.234;6.804;2022-12-29T00:40:59;99781.19;;;23.72;41.53
10712;BME280;5407;51.234;6.804;2022-12-29T00:43:43;99785.16;;;23.71;41.65
10712;BME280;5407;51.234;6.804;2022-12-29T00:46:27;99774.78;;;23.74;41.57
10712;BME280;5407;51.234;6.804;2022-12-29T00:48:54;99768.53;;;23.74;41.56
10712;BME280;5407;51.234;6.804;2022-12-29T00:51:38;99761.47;;;23.73;41.61
10712;BME280;5407;51.234;6.804;2022-12-29T00:54:05;99760.69;;;23.73;41.59
10712;BME280;5407;51.234;6.804;2022-12-29T00:56:34;99759.47;;;23.73;41.66
10712;BME280;5407;51.234;6.804;2022-12-29T00:59:01;99760.69;;;23.73;41.53
10712;BME280;5407;51.234;6.804;2022-12-29T01:01:28;99758.72;;;23.73;41.54
10712;BME280;5407;51.234;6.804;2022-12-29T01:03:55;99761.47;;;23.73;41.68
10712;BME280;5407;51.234;6.804;2022-12-29T01:06:23;99750.31;;;23.76;41.41
10712;BME280;5407;51.234;6.804;2022-12-29T01:08:50;99755.81;;;23.76;41.52
10712;BME280;5407;51.234;6.804;2022-12-29T01:11:39;99755.06;;;23.76;41.53
10712;BME280;5407;51.234;6.804;2022-12-29T01:14:06;99758.13;;;23.78;41.57
10712;BME280;5407;51.234;6.804;2022-12-29T01:16:33;99756.13;;;23.78;41.31
10712;BME280;5407;51.234;6.804;2022-12-29T01:19:02;99767.16;;;23.78;41.46
10712;BME280;5407;51.234;6.804;2022-12-29T01:21:29;99758.88;;;23.78;41.39
10712;BME280;5407;51.234;6.804;2022-12-29T01:23:56;99761.63;;;23.78;41.37
10712;BME280;5407;51.234;6.804;2022-12-29T01:26:23;99764.38;;;23.78;41.48
10712;BME280;5407;51.234;6.804;2022-12-29T01:28:52;99768.69;;;23.79;41.51
10712;BME280;5407;51.234;6.804;2022-12-29T01:31:19;99754.91;;;23.79;41.36
10712;BME280;5407;51.234;6.804;2022-12-29T01:33:46;99762.41;;;23.79;41.13
10712;BME280;5407;51.234;6.804;2022-12-29T01:36:14;99768.69;;;23.79;41.22
10712;BME280;5407;51.234;6.804;2022-12-29T01:38:42;99751.41;;;23.79;41.12
10712;BME280;5407;51.234;6.804;2022-12-29T01:41:11;99760.41;;;23.79;41.11
10712;BME280;5407;51.234;6.804;2022-12-29T01:43:41;99752.16;;;23.79;41.19
10712;BME280;5407;51.234;6.804;2022-12-29T01:46:22;99750.63;;;23.78;41.12
10712;BME280;5407;51.234;6.804;2022-12-29T01:48:53;99751.41;;;23.79;40.99
10712;BME280;5407;51.234;6.804;2022-12-29T01:51:23;99744.34;;;23.78;40.91
10712;BME280;5407;51.234;6.804;2022-12-29T01:53:53;99740.81;;;23.77;41.00
10712;BME280;5407;51.234;6.804;2022-12-29T01:56:21;99735.31;;;23.77;40.93
10712;BME280;5407;51.234;6.804;2022-12-29T01:58:54;99722.75;;;23.76;41.13
10712;BME280;5407;51.234;6.804;2022-12-29T02:01:23;99728.28;;;23.76;40.98
10712;BME280;5407;51.234;6.804;2022-12-29T02:03:50;99722.75;;;23.76;41.07
10712;BME280;5407;51.234;6.804;2022-12-29T02:06:21;99729.50;;;23.75;41.05
10712;BME280;5407;51.234;6.804;2022-12-29T02:08:50;99719.69;;;23.74;40.95
10712;BME280;5407;51.234;6.804;2022-12-29T02:11:23;99727.97;;;23.74;40.93
10712;BME280;5407;51.234;6.804;2022-12-29T02:13:51;99730.72;;;23.74;41.04
10712;BME280;5407;51.234;6.804;2022-12-29T02:16:33;99740.19;;;23.73;40.96
10712;BME280;5407;51.234;6.804;2022-12-29T02:19:22;99727.22;;;23.74;40.88
10712;BME280;5407;51.234;6.804;2022-12-29T02:22:04;99719.69;;;23.74;40.88
10712;BME280;5407;51.234;6.804;2022-12-29T02:25:08;99707.94;;;23.74;40.92
10712;BME280;5407;51.234;6.804;2022-12-29T02:27:51;99720.16;;;23.73;40.86
10712;BME280;5407;51.234;6.804;2022-12-29T02:30:57;99714.19;;;23.74;41.08
10712;BME280;5407;51.234;6.804;2022-12-29T02:33:38;99708.69;;;23.74;40.92
10712;BME280;5407;51.234;6.804;2022-12-29T02:36:15;99703.16;;;23.74;40.84
10712;BME280;5407;51.234;6.804;2022-12-29T02:38:51;99703.97;;;23.75;40.86
10712;BME280;5407;51.234;6.804;2022-12-29T02:41:27;99687.88;;;23.73;40.87
10712;BME280;5407;51.234;6.804;2022-12-29T02:44:01;99692.16;;;23.74;40.94
10712;BME280;5407;51.234;6.804;2022-12-29T02:46:35;99697.66;;;23.74;40.85
10712;BME280;5407;51.234;6.804;2022-12-29T02:49:06;99685.13;;;23.73;40.65
10712;BME280;5407;51.234;6.804;2022-12-29T02:51:42;99685.91;;;23.74;40.88
10712;BME280;5407;51.234;6.804;2022-12-29T02:54:10;99674.88;;;23.74;40.88
10712;BME280;5407;51.234;6.804;2022-12-29T02:56:55;99674.88;;;23.74;40.79
10712;BME280;5407;51.234;6.804;2022-12-29T02:59:22;99672.56;;;23.73;40.92
10712;BME280;5407;51.234;6.804;2022-12-29T03:02:09;99662.34;;;23.73;40.86
10712;BME280;5407;51.234;6.804;2022-12-29T03:04:54;99675.00;;;23.71;40.82
10712;BME280;5407;51.234;6.804;2022-12-29T03:07:34;99660.00;;;23.72;40.84
10712;BME280;5407;51.234;6.804;2022-12-29T03:10:15;99659.25;;;23.71;40.75
10712;BME280;5407;51.234;6.804;2022-12-29T03:12:48;99654.97;;;23.70;40.82
10712;BME280;5407;51.234;6.804;2022-12-29T03:15:42;99665.53;;;23.72;40.79
10712;BME280;5407;51.234;6.804;2022-12-29T03:18:41;99661.25;;;23.71;40.78
10712;BME280;5407;51.234;6.804;2022-12-29T03:21:14;99659.25;;;23.71;40.81
10712;BME280;5407;51.234;6.804;2022-12-29T03:23:43;99653.75;;;23.71;40.87
10712;BME280;5407;51.234;6.804;2022-12-29T03:26:14;99652.97;;;23.71;40.82
10712;BME280;5407;51.234;6.804;2022-12-29T03:28:46;99640.44;;;23.70;40.86
10712;BME280;5407;51.234;6.804;2022-12-29T03:31:20;99641.97;;;23.71;40.71
10712;BME280;5407;51.234;6.804;2022-12-29T03:33:51;99648.69;;;23.70;40.78
10712;BME280;5407;51.234;6.804;2022-12-29T03:36:25;99649.91;;;23.69;40.70
10712;BME280;5407;51.234;6.804;2022-12-29T03:38:59;99642.88;;;23.68;40.83
10712;BME280;5407;51.234;6.804;2022-12-29T03:41:30;99642.88;;;23.68;40.72
10712;BME280;5407;51.234;6.804;2022-12-29T03:44:00;99645.63;;;23.68;40.72
10712;BME280;5407;51.234;6.804;2022-12-29T03:46:27;99642.88;;;23.68;40.74
10712;BME280;5407;51.234;6.804;2022-12-29T03:48:55;99652.34;;;23.67;40.78
10712;BME280;5407;51.234;6.804;2022-12-29T03:51:23;99641.34;;;23.67;40.65
10712;BME280;5407;51.234;6.804;2022-12-29T03:53:50;99639.81;;;23.66;40.61
10712;BME280;5407;51.234;6.804;2022-12-29T03:56:17;99643.78;;;23.65;40.78
10712;BME280;5407;51.234;6.804;2022-12-29T03:58:45;99622.19;;;23.63;40.86
10712;BME280;5407;51.234;6.804;2022-12-29T04:01:20;99618.56;;;23.66;40.62
10712;BME280;5407;51.234;6.804;2022-12-29T04:03:46;99606.75;;;23.66;40.68
10712;BME280;5407;51.234;6.804;2022-12-29T04:06:15;99606.75;;;23.66;40.66
10712;BME280;5407;51.234;6.804;2022-12-29T04:08:49;99604.00;;;23.66;40.59
10712;BME280;5407;51.234;6.804;2022-12-29T04:11:15;99619.00;;;23.65;40.54
10712;BME280;5407;51.234;6.804;2022-12-29T04:13:43;99616.25;;;23.65;40.68
10712;BME280;5407;51.234;6.804;2022-12-29T04:16:14;99615.47;;;23.64;40.55
10712;BME280;5407;51.234;6.804;2022-12-29T04:18:41;99631.22;;;23.64;40.67
10712;BME280;5407;51.234;6.804;2022-12-29T04:21:08;99625.72;;;23.64;40.79
10712;BME280;5407;51.234;6.804;2022-12-29T04:23:39;99625.72;;;23.64;40.64
10712;BME280;5407;51.234;6.804;2022-12-29T04:26:08;99636.75;;;23.64;40.77
10712;BME280;5407;51.234;6.804;2022-12-29T04:28:47;99636.88;;;23.60;40.57
10712;BME280;5407;51.234;6.804;2022-12-29T04:31:27;99634.13;;;23.60;40.67
10712;BME280;5407;51.234;6.804;2022-12-29T04:33:54;99638.28;;;23.65;40.74
10712;BME280;5407;51.234;6.804;2022-12-29T04:36:23;99642.56;;;23.66;40.95
10712;BME280;5407;51.234;6.804;2022-12-29T04:38:51;99620.53;;;23.66;40.76
10712;BME280;5407;51.234;6.804;2022-12-29T04:41:18;99623.28;;;23.66;40.58
10712;BME280;5407;51.234;6.804;2022-12-29T04:43:45;99623.59;;;23.68;40.62
10712;BME280;5407;51.234;6.804;2022-12-29T04:46:30;99626.34;;;23.68;40.71
10712;BME280;5407;51.234;6.804;2022-12-29T04:49:18;99626.66;;;23.70;40.66
10712;BME280;5407;51.234;6.804;2022-12-29T04:51:59;99644.41;;;23.69;40.80
10712;BME280;5407;51.234;6.804;2022-12-29T04:54:27;99641.22;;;23.70;40.74
10712;BME280;5407;51.234;6.804;2022-12-29T04:57:04;99633.69;;;23.71;40.74
10712;BME280;5407;51.234;6.804;2022-12-29T04:59:31;99652.97;;;23.71;40.77
10712;BME280;5407;51.234;6.804;2022-12-29T05:01:58;99636.44;;;23.71;40.70
10712;BME280;5407;51.234;6.804;2022-12-29T05:04:26;99635.69;;;23.70;40.82
10712;BME280;5407;51.234;6.804;2022-12-29T05:06:52;99637.22;;;23.71;40.72
10712;BME280;5407;51.234;6.804;2022-12-29T05:09:19;99640.44;;;23.70;40.70
10712;BME280;5407;51.234;6.804;2022-12-29T05:11:48;99643.97;;;23.70;40.74
10712;BME280;5407;51.234;6.804;2022-12-29T05:14:15;99646.72;;;23.70;40.63
10712;BME280;5407;51.234;6.804;2022-12-29T05:16:42;99652.97;;;23.71;40.77
10712;BME280;5407;51.234;6.804;2022-12-29T05:19:09;99647.47;;;23.71;40.48
10712;BME280;5407;51.234;6.804;2022-12-29T05:21:37;99661.72;;;23.69;40.86
10712;BME280;5407;51.234;6.804;2022-12-29T05:24:04;99652.97;;;23.71;40.84
10712;BME280;5407;51.234;6.804;2022-12-29T05:26:31;99650.69;;;23.69;40.92
10712;BME280;5407;51.234;6.804;2022-12-29T05:29:06;99661.06;;;23.65;40.86
10712;BME280;5407;51.234;6.804;2022-12-29T05:31:33;99662.75;;;23.63;39.28
10712;BME280;5407;51.234;6.804;2022-12-29T05:34:03;99657.63;;;23.52;38.45
10712;BME280;5407;51.234;6.804;2022-12-29T05:36:30;99656.50;;;23.41;38.94
10712;BME280;5407;51.234;6.804;2022-12-29T05:38:59;99657.38;;;23.29;38.72
10712;BME280;5407;51.234;6.804;2022-12-29T05:41:26;99672.00;;;23.17;38.71
10712;BME280;5407;51.234;6.804;2022-12-29T05:43:59;99654.13;;;23.00;38.84
10712;BME280;5407;51.234;6.804;2022-12-29T05:46:39;99662.56;;;22.84;38.64
10712;BME280;5407;51.234;6.804;2022-12-29T05:49:29;99668.47;;;22.73;38.63
10712;BME280;5407;51.234;6.804;2022-12-29T05:52:14;99649.91;;;22.65;38.63
10712;BME280;5407;51.234;6.804;2022-12-29T05:54:41;99657.81;;;22.63;38.66
10712;BME280;5407;51.234;6.804;2022-12-29T05:57:11;99657.69;;;22.66;39.87
10712;BME280;5407;51.234;6.804;2022-12-29T05:59:40;99658.22;;;22.74;40.26
10712;BME280;5407;51.234;6.804;2022-12-29T06:02:09;99670.38;;;22.85;40.32
10712;BME280;5407;51.234;6.804;2022-12-29T06:04:36;99686.47;;;22.96;40.22
10712;BME280;5407;51.234;6.804;2022-12-29T06:07:03;99680.75;;;23.03;40.18
10712;BME280;5407;51.234;6.804;2022-12-29T06:09:39;99686.88;;;23.07;40.26
10712;BME280;5407;51.234;6.804;2022-12-29T06:12:06;99696.13;;;23.13;40.29
10712;BME280;5407;51.234;6.804;2022-12-29T06:14:33;99697.66;;;23.14;40.29
10712;BME280;5407;51.234;6.804;2022-12-29T06:17:02;99699.50;;;23.17;40.41
10712;BME280;5407;51.234;6.804;2022-12-29T06:19:32;99688.38;;;23.20;40.34
10712;BME280;5407;51.234;6.804;2022-12-29T06:21:59;99686.25;;;23.24;40.34
10712;BME280;5407;51.234;6.804;2022-12-29T06:24:27;99691.31;;;23.26;40.36
10712;BME280;5407;51.234;6.804;2022-12-29T06:26:54;99702.19;;;23.29;40.46
10712;BME280;5407;51.234;6.804;2022-12-29T06:29:21;99711.19;;;23.30;40.24
10712;BME280;5407;51.234;6.804;2022-12-29T06:31:47;99713.81;;;23.33;40.16
10712;BME280;5407;51.234;6.804;2022-12-29T06:34:16;99732.31;;;23.33;40.27
10712;BME280;5407;51.234;6.804;2022-12-29T06:36:44;99731.41;;;23.36;40.27
10712;BME280;5407;51.234;6.804;2022-12-29T06:39:11;99732.50;;;23.38;40.33
10712;BME280;5407;51.234;6.804;2022-12-29T06:41:38;99737.56;;;23.40;40.26
10712;BME280;5407;51.234;6.804;2022-12-29T06:44:21;99747.81;;;23.39;40.19
10712;BME280;5407;51.234;6.804;2022-12-29T06:47:09;99738.69;;;23.51;40.03
10712;BME280;5407;51.234;6.804;2022-12-29T06:49:35;99740.13;;;23.56;40.08
10712;BME280;5407;51.234;6.804;2022-12-29T06:52:04;99734.13;;;23.57;39.94
10712;BME280;5407;51.234;6.804;2022-12-29T06:54:31;99737.69;;;23.58;39.82
10712;BME280;5407;51.234;6.804;2022-12-29T06:56:58;99745.94;;;23.58;39.84
10712;BME280;5407;51.234;6.804;2022-12-29T06:59:25;99744.72;;;23.59;39.90
10712;BME280;5407;51.234;6.804;2022-12-29T07:01:52;99739.97;;;23.59;39.94
10712;BME280;5407;51.234;6.804;2022-12-29T07:04:18;99744.25;;;23.60;39.90
10712;BME280;5407;51.234;6.804;2022-12-29T07:06:45;99740.75;;;23.60;39.69
10712;BME280;5407;51.234;6.804;2022-12-29T07:09:13;99740.75;;;23.60;39.77
10712;BME280;5407;51.234;6.804;2022-12-29T07:11:40;99744.25;;;23.60;39.74
10712;BME280;5407;51.234;6.804;2022-12-29T07:14:07;99754.50;;;23.60;39.75
10712;BME280;5407;51.234;6.804;2022-12-29T07:16:34;99747.78;;;23.61;39.66
10712;BME280;5407;51.234;6.804;2022-12-29T07:19:01;99758.00;;;23.60;39.75
10712;BME280;5407;51.234;6.804;2022-12-29T07:21:28;99756.78;;;23.61;39.59
10712;BME280;5407;51.234;6.804;2022-12-29T07:23:55;99754.81;;;23.62;39.68
10712;BME280;5407;51.234;6.804;2022-12-29T07:26:23;99768.59;;;23.62;39.65
10712;BME280;5407;51.234;6.804;2022-12-29T07:28:50;99761.56;;;23.61;39.58
10712;BME280;5407;51.234;6.804;2022-12-29T07:31:18;99772.88;;;23.63;39.73
10712;BME280;5407;51.234;6.804;2022-12-29T07:33:45;99772.88;;;23.63;39.62
10712;BME280;5407;51.234;6.804;2022-12-29T07:36:13;99777.59;;;23.62;39.59
10712;BME280;5407;51.234;6.804;2022-12-29T07:38:40;99778.38;;;23.63;39.52
10712;BME280;5407;51.234;6.804;2022-12-29T07:41:08;99783.91;;;23.63;39.47
10712;BME280;5407;51.234;6.804;2022-12-29T07:43:36;99790.16;;;23.63;39.54
10712;BME280;5407;51.234;6.804;2022-12-29T07:46:21;99792.16;;;23.63;39.52
10712;BME280;5407;51.234;6.804;2022-12-29T07:48:48;99792.59;;;23.61;39.37
10712;BME280;5407;51.234;6.804;2022-12-29T07:51:15;99803.59;;;23.61;39.37
10712;BME280;5407;51.234;6.804;2022-12-29T07:53:42;99814.19;;;23.63;39.42
10712;BME280;5407;51.234;6.804;2022-12-29T07:56:09;99801.94;;;23.64;39.30
10712;BME280;5407;51.234;6.804;2022-12-29T07:58:37;99806.69;;;23.63;39.25
10712;BME280;5407;51.234;6.804;2022-12-29T08:01:04;99815.72;;;23.64;39.38
10712;BME280;5407;51.234;6.804;2022-12-29T08:03:31;99812.19;;;23.63;39.24
10712;BME280;5407;51.234;6.804;2022-12-29T08:05:58;99810.22;;;23.64;39.31
10712;BME280;5407;51.234;6.804;2022-12-29T08:08:25;99812.97;;;23.64;39.43
10712;BME280;5407;51.234;6.804;2022-12-29T08:10:51;99812.97;;;23.64;39.38
10712;BME280;5407;51.234;6.804;2022-12-29T08:13:18;99812.97;;;23.64;39.40
10712;BME280;5407;51.234;6.804;2022-12-29T08:15:46;99819.22;;;23.64;39.39
10712;BME280;5407;51.234;6.804;2022-12-29T08:18:13;99816.47;;;23.64;39.40
10712;BME280;5407;51.234;6.804;2022-12-29T08:20:40;99826.28;;;23.65;39.44
10712;BME280;5407;51.234;6.804;2022-12-29T08:23:07;99829.81;;;23.66;39.44
10712;BME280;5407;51.234;6.804;2022-12-29T08:25:34;99821.53;;;23.66;39.56
10712;BME280;5407;51.234;6.804;2022-12-29T08:28:00;99829.38;;;23.67;39.48
10712;BME280;5407;51.234;6.804;2022-12-29T08:30:27;99831.34;;;23.67;39.42
10712;BME280;5407;51.234;6.804;2022-12-29T08:32:56;99839.59;;;23.67;39.38
10712;BME280;5407;51.234;6.804;2022-12-29T08:35:22;99840.38;;;23.67;39.38
10712;BME280;5407;51.234;6.804;2022-12-29T08:37:49;99835.63;;;23.68;39.43
10712;BME280;5407;51.234;6.804;2022-12-29T08:40:16;99843.91;;;23.68;39.23
10712;BME280;5407;51.234;6.804;2022-12-29T08:42:43;99859.19;;;23.69;39.41
10712;BME280;5407;51.234;6.804;2022-12-29T08:45:11;99851.41;;;23.67;39.43
10712;BME280;5407;51.234;6.804;2022-12-29T08:47:37;99845.13;;;23.67;39.35
10712;BME280;5407;51.234;6.804;2022-12-29T08:50:06;99850.94;;;23.69;39.33
10712;BME280;5407;51.234;6.804;2022-12-29T08:52:33;99852.16;;;23.68;39.45
10712;BME280;5407;51.234;6.804;2022-12-29T08:55:00;99858.44;;;23.68;39.37
10712;BME280;5407;51.234;6.804;2022-12-29T08:57:28;99866.25;;;23.70;39.46
10712;BME280;5407;51.234;6.804;2022-12-29T09:00:12;99866.25;;;23.70;39.42
10712;BME280;5407;51.234;6.804;2022-12-29T09:02:40;99860.75;;;23.70;39.42
10712;BME280;5407;51.234;6.804;2022-12-29T09:05:09;99860.75;;;23.70;39.57
10712;BME280;5407;51.234;6.804;2022-12-29T09:07:36;99859.97;;;23.69;39.62
10712;BME280;5407;51.234;6.804;2022-12-29T09:10:03;99858.78;;;23.70;39.74
10712;BME280;5407;51.234;6.804;2022-12-29T09:12:30;99870.84;;;23.73;39.86
10712;BME280;5407;51.234;6.804;2022-12-29T09:14:57;99873.16;;;23.74;40.19
10712;BME280;5407;51.234;6.804;2022-12-29T09:17:24;99870.41;;;23.74;40.17
10712;BME280;5407;51.234;6.804;2022-12-29T09:20:11;99883.72;;;23.75;40.17
10712;BME280;5407;51.234;6.804;2022-12-29T09:22:38;99880.97;;;23.75;40.26
10712;BME280;5407;51.234;6.804;2022-12-29T09:25:06;99875.47;;;23.75;40.10
10712;BME280;5407;51.234;6.804;2022-12-29T09:27:34;99885.25;;;23.76;40.17
10712;BME280;5407;51.234;6.804;2022-12-29T09:30:01;99886.47;;;23.75;40.17
10712;BME280;5407;51.234;6.804;2022-12-29T09:32:28;99892.78;;;23.76;40.16
10712;BME280;5407;51.234;6.804;2022-12-29T09:34:55;99893.53;;;23.76;40.27
10712;BME280;5407;51.234;6.804;2022-12-29T09:37:23;99911.59;;;23.77;40.34
10712;BME280;5407;51.234;6.804;2022-12-29T09:39:50;99892.31;;;23.77;40.73
10712;BME280;5407;51.234;6.804;2022-12-29T09:42:20;99892.63;;;23.79;41.01
10712;BME280;5407;51.234;6.804;2022-12-29T09:45:06;99901.69;;;23.80;41.23
10712;BME280;5407;51.234;6.804;2022-12-29T09:47:35;99912.25;;;23.81;41.30
10712;BME280;5407;51.234;6.804;2022-12-29T09:50:07;99906.75;;;23.81;41.07
10712;BME280;5407;51.234;6.804;2022-12-29T09:52:43;99915.00;;;23.81;41.11
10712;BME280;5407;51.234;6.804;2022-12-29T09:55:16;99902.03;;;23.82;41.29
10712;BME280;5407;51.234;6.804;2022-12-29T09:57:47;99894.63;;;23.79;40.88
10712;BME280;5407;51.234;6.804;2022-12-29T10:00:16;99891.88;;;23.79;40.82
10712;BME280;5407;51.234;6.804;2022-12-29T10:02:47;99891.44;;;23.80;40.59
10712;BME280;5407;51.234;6.804;2022-12-29T10:05:27;99888.69;;;23.80;40.63
10712;BME280;5407;51.234;6.804;2022-12-29T10:08:07;99893.41;;;23.80;40.50
10712;BME280;5407;51.234;6.804;2022-12-29T10:10:41;99895.38;;;23.79;40.37
10712;BME280;5407;51.234;6.804;2022-12-29T10:13:25;99893.41;;;23.80;40.37
10712;BME280;5407;51.234;6.804;2022-12-29T10:16:01;99898.13;;;23.79;40.42
10712;BME280;5407;51.234;6.804;2022-12-29T10:18:52;99893.84;;;23.78;40.23
10712;BME280;5407;51.234;6.804;2022-12-29T10:21:27;99897.38;;;23.79;40.07
10712;BME280;5407;51.234;6.804;2022-12-29T10:23:59;99885.59;;;23.78;39.97
10712;BME280;5407;51.234;6.804;2022-12-29T10:26:40;99887.59;;;23.78;39.63
10712;BME280;5407;51.234;6.804;2022-12-29T10:29:14;99900.56;;;23.77;39.74
10712;BME280;5407;51.234;6.804;2022-12-29T10:31:44;99896.28;;;23.76;39.60
10712;BME280;5407;51.234;6.804;2022-12-29T10:34:19;99912.81;;;23.76;39.63
10712;BME280;5407;51.234;6.804;2022-12-29T10:36:49;99897.06;;;23.77;39.39
10712;BME280;5407;51.234;6.804;2022-12-29T10:39:25;99917.09;;;23.77;39.56
10712;BME280;5407;51.234;6.804;2022-12-29T10:41:59;99910.84;;;23.77;39.49
10712;BME280;5407;51.234;6.804;2022-12-29T10:44:31;99917.09;;;23.77;39.58
10712;BME280;5407;51.234;6.804;2022-12-29T10:47:04;99921.06;;;23.76;39.54
10712;BME280;5407;51.234;6.804;2022-12-29T10:49:36;99930.53;;;23.75;39.51
10712;BME280;5407;51.234;6.804;2022-12-29T10:52:05;99925.03;;;23.75;39.54
10712;BME280;5407;51.234;6.804;2022-12-29T10:54:39;99921.84;;;23.77;39.38
10712;BME280;5407;51.234;6.804;2022-12-29T10:57:13;99928.13;;;23.77;39.39
10712;BME280;5407;51.234;6.804;2022-12-29T10:59:43;99930.13;;;23.77;39.42
10712;BME280;5407;51.234;6.804;2022-12-29T11:02:24;99939.13;;;23.77;39.43
10712;BME280;5407;51.234;6.804;2022-12-29T11:04:57;99943.44;;;23.78;39.24
10712;BME280;5407;51.234;6.804;2022-12-29T11:07:28;99962.69;;;23.78;39.31
10712;BME280;5407;51.234;6.804;2022-12-29T11:10:16;99940.66;;;23.78;39.35
10712;BME280;5407;51.234;6.804;2022-12-29T11:12:55;99939.44;;;23.79;39.21
10712;BME280;5407;51.234;6.804;2022-12-29T11:15:22;99946.53;;;23.80;39.25
10712;BME280;5407;51.234;6.804;2022-12-29T11:17:52;99947.72;;;23.79;39.30
10712;BME280;5407;51.234;6.804;2022-12-29T11:20:27;99955.56;;;23.81;39.34
10712;BME280;5407;51.234;6.804;2022-12-29T11:22:55;99965.81;;;23.80;39.23
10712;BME280;5407;51.234;6.804;2022-12-29T11:25:23;99963.84;;;23.81;39.40
10712;BME280;5407;51.234;6.804;2022-12-29T11:27:58;99971.31;;;23.80;38.97
10712;BME280;5407;51.234;6.804;2022-12-29T11:30:28;99965.81;;;23.80;39.17
10712;BME280;5407;51.234;6.804;2022-12-29T11:32:56;99971.31;;;23.80;39.10
10712;BME280;5407;51.234;6.804;2022-12-29T11:35:32;99973.63;;;23.82;39.35
10712;BME280;5407;51.234;6.804;2022-12-29T11:38:00;99960.31;;;23.80;39.03
10712;BME280;5407;51.234;6.804;2022-12-29T11:40:29;99972.09;;;23.81;39.12
10712;BME280;5407;51.234;6.804;2022-12-29T11:42:58;99978.00;;;23.79;38.70
10712;BME280;5407;51.234;6.804;2022-12-29T11:45:30;99982.34;;;23.80;38.81
10712;BME280;5407;51.234;6.804;2022-12-29T11:48:05;99974.06;;;23.80;38.74
10712;BME280;5407;51.234;6.804;2022-12-29T11:50:35;99991.78;;;23.79;38.66
10712;BME280;5407;51.234;6.804;2022-12-29T11:53:05;99997.28;;;23.79;38.65
10712;BME280;5407;51.234;6.804;2022-12-29T11:55:38;99994.53;;;23.79;38.87
10712;BME280;5407;51.234;6.804;2022-12-29T11:58:05;99993.34;;;23.80;38.75
10712;BME280;5407;51.234;6.804;2022-12-29T12:00:36;99980.78;;;23.79;38.54
10712;BME280;5407;51.234;6.804;2022-12-29T12:03:10;100006.78;;;23.78;38.64
10712;BME280;5407;51.234;6.804;2022-12-29T12:05:43;100006.78;;;23.78;38.48
10712;BME280;5407;51.234;6.804;2022-12-29T12:08:15;100011.53;;;23.78;38.31
10712;BME280;5407;51.234;6.804;2022-12-29T12:10:48;100005.22;;;23.77;38.17
10712;BME280;5407;51.234;6.804;2022-12-29T12:13:21;100009.22;;;23.76;38.25
10712;BME280;5407;51.234;6.804;2022-12-29T12:15:56;100002.16;;;23.75;38.15
10712;BME280;5407;51.234;6.804;2022-12-29T12:18:39;100009.22;;;23.76;38.37
10712;BME280;5407;51.234;6.804;2022-12-29T12:21:16;100011.22;;;23.76;38.37
10712;BME280;5407;51.234;6.804;2022-12-29T12:24:08;100017.94;;;23.75;38.13
10712;BME280;5407;51.234;6.804;2022-12-29T12:26:55;100009.66;;;23.75;38.29
10712;BME280;5407;51.234;6.804;2022-12-29T12:29:25;100011.63;;;23.74;38.15
10712;BME280;5407;51.234;6.804;2022-12-29T12:31:59;100018.34;;;23.73;38.22
10712;BME280;5407;51.234;6.804;2022-12-29T12:34:32;100014.06;;;23.73;38.20
10712;BME280;5407;51.234;6.804;2022-12-29T12:37:23;100022.34;;;23.73;38.12
10712;BME280;5407;51.234;6.804;2022-12-29T12:40:14;100025.09;;;23.73;38.16
10712;BME280;5407;51.234;6.804;2022-12-29T12:42:53;100022.34;;;23.73;38.27
10712;BME280;5407;51.234;6.804;2022-12-29T12:45:43;100025.88;;;23.73;38.36
10712;BME280;5407;51.234;6.804;2022-12-29T12:48:28;100021.13;;;23.73;38.37
10712;BME280;5407;51.234;6.804;2022-12-29T12:51:04;100026.63;;;23.73;38.31
10712;BME280;5407;51.234;6.804;2022-12-29T12:53:56;100032.91;;;23.74;38.39
10712;BME280;5407;51.234;6.804;2022-12-29T12:56:42;100022.66;;;23.74;38.31
10712;BME280;5407;51.234;6.804;2022-12-29T12:59:23;100024.66;;;23.74;38.30
10712;BME280;5407;51.234;6.804;2022-12-29T13:02:01;100033.66;;;23.74;38.59
10712;BME280;5407;51.234;6.804;2022-12-29T13:04:55;100034.00;;;23.76;38.50
10712;BME280;5407;51.234;6.804;2022-12-29T13:07:36;100047.00;;;23.76;38.70
10712;BME280;5407;51.234;6.804;2022-12-29T13:10:22;100047.75;;;23.76;38.62
10712;BME280;5407;51.234;6.804;2022-12-29T13:13:00;100052.06;;;23.77;38.78
10712;BME280;5407;51.234;6.804;2022-12-29T13:15:41;100048.09;;;23.78;38.72
10712;BME280;5407;51.234;6.804;2022-12-29T13:18:22;100056.34;;;23.78;38.72
10712;BME280;5407;51.234;6.804;2022-12-29T13:20:55;100051.63;;;23.79;38.70
10712;BME280;5407;51.234;6.804;2022-12-29T13:23:26;100060.31;;;23.77;38.79
10712;BME280;5407;51.234;6.804;2022-12-29T13:26:01;100059.09;;;23.78;38.78
10712;BME280;5407;51.234;6.804;2022-12-29T13:28:39;100059.09;;;23.78;38.93
10712;BME280;5407;51.234;6.804;2022-12-29T13:31:15;100053.94;;;23.80;38.85
10712;BME280;5407;51.234;6.804;2022-12-29T13:33:53;100062.22;;;23.80;38.75
10712;BME280;5407;51.234;6.804;2022-12-29T13:36:28;100054.75;;;23.81;38.53
10712;BME280;5407;51.234;6.804;2022-12-29T13:39:02;100057.50;;;23.81;38.67